createdAt,value
2023-05-12T00:01:34.745Z,9.16
2023-05-12T00:04:02.845Z,9.10
2023-05-12T00:06:31.209Z,9.09
2023-05-12T00:08:59.095Z,9.08
2023-05-12T00:11:27.094Z,9.02
2023-05-12T00:13:57.198Z,9.04
2023-05-12T00:16:25.174Z,9.03
2023-05-12T00:18:53.378Z,9.06
2023-05-12T00:21:21.369Z,9.09
2023-05-12T00:23:49.275Z,9.03
2023-05-12T00:26:17.600Z,9.05
2023-05-12T00:28:47.595Z,9.01
2023-05-12T00:31:17.007Z,8.98
2023-05-12T00:33:44.961Z,8.98
2023-05-12T00:36:12.853Z,8.96
2023-05-12T00:38:41.359Z,8.91
2023-05-12T00:41:09.304Z,8.89
2023-05-12T00:43:37.270Z,8.88
2023-05-12T00:46:06.254Z,8.83
2023-05-12T00:48:35.749Z,8.80
2023-05-12T00:51:03.987Z,8.76
2023-05-12T00:53:45.030Z,8.74
2023-05-12T00:56:17.928Z,8.72
2023-05-12T00:58:46.318Z,8.63
2023-05-12T01:01:14.502Z,8.63
2023-05-12T01:03:43.893Z,8.63
2023-05-12T01:06:13.753Z,8.62
2023-05-12T01:08:42.218Z,8.59
2023-05-12T01:11:10.102Z,8.54
2023-05-12T01:13:39.558Z,8.51
2023-05-12T01:16:08.247Z,8.46
2023-05-12T01:18:36.279Z,8.48
2023-05-12T01:21:05.701Z,8.42
2023-05-12T01:23:35.876Z,8.43
2023-05-12T01:26:06.238Z,8.37
2023-05-12T01:28:34.471Z,8.35
2023-05-12T01:31:02.411Z,8.29
2023-05-12T01:33:30.394Z,8.27
2023-05-12T01:35:58.323Z,8.19
2023-05-12T01:38:26.337Z,8.16
2023-05-12T01:40:54.229Z,8.07
2023-05-12T01:43:23.545Z,8.06
2023-05-12T01:45:51.490Z,8.01
2023-05-12T01:48:19.455Z,7.93
2023-05-12T01:50:47.390Z,7.86
2023-05-12T01:53:15.300Z,7.83
2023-05-12T01:55:43.398Z,7.80
2023-05-12T01:58:11.285Z,7.72
2023-05-12T02:00:40.597Z,7.70
2023-05-12T02:03:08.554Z,7.64
2023-05-12T02:05:36.547Z,7.52
2023-05-12T02:08:04.870Z,7.56
2023-05-12T02:10:32.798Z,7.53
2023-05-12T02:13:00.788Z,7.48
2023-05-12T02:15:28.765Z,7.43
2023-05-12T02:17:58.585Z,7.43
2023-05-12T02:20:29.014Z,7.42
2023-05-12T02:22:57.056Z,7.44
2023-05-12T02:25:25.073Z,7.44
2023-05-12T02:27:53.265Z,7.41
2023-05-12T02:30:21.511Z,7.44
2023-05-12T02:32:49.624Z,7.48
2023-05-12T02:35:19.147Z,7.48
2023-05-12T02:37:47.104Z,7.50
2023-05-12T02:40:16.140Z,7.51
2023-05-12T02:42:45.560Z,7.59
2023-05-12T02:45:14.056Z,7.62
2023-05-12T02:47:42.065Z,7.64
2023-05-12T02:50:10.680Z,7.69
2023-05-12T02:52:39.998Z,7.68
2023-05-12T02:55:08.352Z,7.70
2023-05-12T02:57:36.324Z,7.74
2023-05-12T03:00:05.878Z,7.76
2023-05-12T03:02:33.943Z,7.83
2023-05-12T03:05:01.905Z,7.92
2023-05-12T03:07:29.897Z,7.96
2023-05-12T03:09:59.210Z,7.93
2023-05-12T03:12:28.775Z,8.03
2023-05-12T03:14:56.934Z,8.05
2023-05-12T03:17:24.863Z,8.11
2023-05-12T03:19:52.801Z,8.15
2023-05-12T03:22:20.732Z,8.28
2023-05-12T03:24:48.647Z,8.40
2023-05-12T03:27:17.966Z,8.51
2023-05-12T03:29:45.969Z,8.66
2023-05-12T03:32:14.386Z,8.79
2023-05-12T03:34:42.316Z,8.88
2023-05-12T03:37:10.307Z,8.99
2023-05-12T03:39:38.268Z,9.03
2023-05-12T03:42:07.123Z,9.20
2023-05-12T03:44:36.448Z,9.21
2023-05-12T03:47:04.521Z,9.17
2023-05-12T03:49:32.542Z,9.07
2023-05-12T03:52:00.467Z,9.19
2023-05-12T03:54:28.365Z,9.23
2023-05-12T03:56:56.350Z,9.37
2023-05-12T03:59:24.433Z,9.40
2023-05-12T04:01:54.427Z,9.50
2023-05-12T04:04:22.385Z,9.53
2023-05-12T04:06:50.316Z,9.58
2023-05-12T04:09:18.281Z,9.66
2023-05-12T04:11:46.215Z,9.74
2023-05-12T04:14:14.173Z,9.92
2023-05-12T04:16:42.148Z,9.93
2023-05-12T04:19:11.495Z,9.89
2023-05-12T04:21:39.444Z,9.94
2023-05-12T04:24:07.610Z,10.01
2023-05-12T04:26:35.539Z,10.15
2023-05-12T04:29:03.446Z,10.22
2023-05-12T04:31:31.397Z,10.28
2023-05-12T04:33:59.538Z,10.11
2023-05-12T04:36:28.787Z,10.30
2023-05-12T04:38:56.872Z,10.42
2023-05-12T04:41:24.785Z,10.38
2023-05-12T04:46:23.654Z,10.64
2023-05-12T04:48:51.650Z,10.74
2023-05-12T04:51:19.617Z,10.97
2023-05-12T04:53:48.927Z,11.17
2023-05-12T04:56:16.890Z,11.35
2023-05-12T04:58:44.859Z,11.32
2023-05-12T05:01:13.708Z,11.34
2023-05-12T05:03:41.766Z,11.26
2023-05-12T05:06:09.765Z,11.26
2023-05-12T05:08:37.712Z,11.17
2023-05-12T05:11:07.101Z,11.31
2023-05-12T05:13:35.025Z,11.52
2023-05-12T05:16:02.974Z,11.79
2023-05-12T05:18:30.974Z,11.75
2023-05-12T05:20:59.346Z,12.14
2023-05-12T05:23:27.422Z,12.40
2023-05-12T05:25:55.454Z,12.59
2023-05-12T05:28:24.824Z,12.68
2023-05-12T05:30:52.763Z,12.66
2023-05-12T05:33:21.352Z,12.91
2023-05-12T05:35:49.294Z,13.17
2023-05-12T05:38:17.211Z,13.38
2023-05-12T05:40:52.028Z,13.41
2023-05-12T05:43:20.690Z,13.49
2023-05-12T05:45:50.374Z,13.54
2023-05-12T05:48:18.412Z,13.60
2023-05-12T05:50:46.717Z,13.63
2023-05-12T05:53:14.649Z,13.56
2023-05-12T05:55:42.569Z,13.60
2023-05-12T05:58:10.459Z,13.74
2023-05-12T06:00:38.453Z,13.55
2023-05-12T06:03:07.891Z,13.56
2023-05-12T06:05:35.900Z,13.69
2023-05-12T06:08:05.233Z,13.65
2023-05-12T06:10:33.386Z,13.64
2023-05-12T06:13:01.296Z,13.82
2023-05-12T06:15:29.263Z,14.03
2023-05-12T06:17:57.243Z,14.22
2023-05-12T06:20:26.592Z,14.41
2023-05-12T06:22:54.509Z,14.48
2023-05-12T06:25:22.765Z,14.53
2023-05-12T06:27:51.986Z,14.37
2023-05-12T06:30:20.234Z,14.52
2023-05-12T06:32:48.232Z,14.47
2023-05-12T06:35:16.881Z,14.57
2023-05-12T06:37:49.599Z,14.75
2023-05-12T06:40:18.001Z,14.85
2023-05-12T06:42:45.985Z,14.79
2023-05-12T06:45:13.909Z,14.88
2023-05-12T06:47:41.906Z,15.03
2023-05-12T06:50:10.414Z,15.22
2023-05-12T06:52:38.630Z,15.29
2023-05-12T06:55:08.696Z,15.40
2023-05-12T06:57:36.691Z,15.51
2023-05-12T07:00:05.062Z,15.57
2023-05-12T07:02:33.016Z,15.74
2023-05-12T07:05:00.937Z,15.99
2023-05-12T07:07:28.866Z,15.93
2023-05-12T07:09:57.195Z,16.09
2023-05-12T07:12:26.630Z,16.19
2023-05-12T07:14:54.569Z,16.22
2023-05-12T07:17:22.823Z,16.47
2023-05-12T07:19:50.779Z,16.59
2023-05-12T07:22:20.801Z,16.72
2023-05-12T07:24:48.731Z,16.73
2023-05-12T07:27:16.737Z,16.73
2023-05-12T07:29:46.025Z,16.78
2023-05-12T07:32:13.961Z,16.79
2023-05-12T07:34:41.895Z,16.80
2023-05-12T07:37:09.812Z,17.01
2023-05-12T07:39:38.556Z,17.05
2023-05-12T07:42:07.127Z,17.22
2023-05-12T07:44:35.157Z,17.28
2023-05-12T07:47:05.233Z,17.38
2023-05-12T07:49:33.244Z,17.34
2023-05-12T07:52:01.159Z,17.34
2023-05-12T07:54:29.077Z,17.29
2023-05-12T07:56:57.022Z,17.57
2023-05-12T07:59:24.924Z,17.85
2023-05-12T08:01:54.067Z,18.00
2023-05-12T08:04:23.499Z,17.89
2023-05-12T08:06:51.525Z,17.73
2023-05-12T08:09:19.471Z,17.71
2023-05-12T08:11:49.389Z,17.74
2023-05-12T08:14:19.324Z,17.80
2023-05-12T08:16:47.878Z,17.80
2023-05-12T08:19:15.861Z,18.07
2023-05-12T08:21:45.222Z,18.38
2023-05-12T08:24:13.150Z,18.58
2023-05-12T08:26:41.092Z,18.79
2023-05-12T08:29:09.703Z,18.86
2023-05-12T08:31:38.434Z,18.98
2023-05-12T08:34:10.872Z,18.75
2023-05-12T08:36:39.263Z,18.73
2023-05-12T08:39:10.235Z,18.53
2023-05-12T08:41:44.115Z,18.55
2023-05-12T08:44:12.508Z,18.25
2023-05-12T08:46:40.941Z,18.47
2023-05-12T08:49:12.462Z,18.60
2023-05-12T08:51:40.446Z,18.97
2023-05-12T08:54:09.935Z,19.30
2023-05-12T08:59:09.973Z,20.03
2023-05-12T09:01:37.901Z,20.33
2023-05-12T09:04:06.085Z,20.30
2023-05-12T09:06:34.143Z,20.06
2023-05-12T09:09:02.164Z,19.98
2023-05-12T09:11:31.465Z,19.93
2023-05-12T09:14:03.168Z,20.14
2023-05-12T09:16:32.427Z,20.01
2023-05-12T09:19:01.653Z,19.94
2023-05-12T09:21:29.736Z,19.89
2023-05-12T09:24:01.263Z,20.13
2023-05-12T09:26:29.477Z,20.18
2023-05-12T09:29:08.637Z,20.09
2023-05-12T09:31:36.868Z,19.90
2023-05-12T09:34:08.543Z,19.74
2023-05-12T09:36:36.675Z,19.77
2023-05-12T09:39:05.530Z,19.65
2023-05-12T09:41:36.451Z,19.54
2023-05-12T09:44:06.625Z,19.23
2023-05-12T09:46:35.787Z,19.17
2023-05-12T09:49:03.778Z,19.13
2023-05-12T09:51:32.387Z,19.21
2023-05-12T09:54:00.474Z,19.55
2023-05-12T09:56:30.089Z,19.72
2023-05-12T09:58:58.357Z,19.75
2023-05-12T10:01:28.994Z,19.78
2023-05-12T10:03:57.497Z,19.81
2023-05-12T10:06:28.278Z,19.46
2023-05-12T10:09:01.633Z,19.21
2023-05-12T10:11:29.606Z,18.91
2023-05-12T10:13:57.601Z,19.02
2023-05-12T10:16:27.175Z,19.04
2023-05-12T10:18:55.247Z,19.08
2023-05-12T10:21:23.296Z,18.83
2023-05-12T10:23:51.225Z,18.85
2023-05-12T10:26:19.221Z,18.82
2023-05-12T10:28:47.285Z,18.71
2023-05-12T10:31:15.275Z,18.47
2023-05-12T10:33:44.656Z,18.56
2023-05-12T10:36:19.426Z,18.54
2023-05-12T10:38:49.701Z,18.65
2023-05-12T10:41:18.430Z,18.62
2023-05-12T10:43:50.274Z,18.72
2023-05-12T10:46:18.967Z,18.81
2023-05-12T10:48:55.929Z,18.90
2023-05-12T10:51:24.360Z,19.05
2023-05-12T10:53:54.799Z,19.07
2023-05-12T10:56:24.147Z,19.26
2023-05-12T10:59:12.371Z,19.55
2023-05-12T11:01:41.473Z,19.45
2023-05-12T11:04:15.432Z,19.67
2023-05-12T11:06:45.033Z,19.93
2023-05-12T11:09:13.756Z,20.12
2023-05-12T11:11:43.473Z,20.36
2023-05-12T11:14:11.670Z,20.75
2023-05-12T11:16:43.561Z,20.81
2023-05-12T11:19:11.780Z,20.76
2023-05-12T11:21:41.221Z,20.89
2023-05-12T11:24:13.130Z,20.64
2023-05-12T11:26:41.428Z,20.65
2023-05-12T11:29:09.420Z,20.18
2023-05-12T11:31:38.048Z,20.13
2023-05-12T11:34:12.798Z,20.15
2023-05-12T11:36:43.458Z,20.37
2023-05-12T11:39:15.122Z,20.41
2023-05-12T11:41:43.069Z,20.32
2023-05-12T11:44:15.009Z,20.14
2023-05-12T11:46:42.933Z,20.39
2023-05-12T11:49:12.285Z,20.40
2023-05-12T11:51:44.436Z,20.88
2023-05-12T11:54:12.345Z,21.13
2023-05-12T11:56:40.309Z,21.72
2023-05-12T11:59:08.797Z,22.26
2023-05-12T12:01:46.292Z,22.43
2023-05-12T12:04:14.732Z,23.06
2023-05-12T12:06:47.178Z,22.73
2023-05-12T12:09:15.145Z,22.60
2023-05-12T12:11:43.039Z,22.98
2023-05-12T12:14:10.960Z,22.30
2023-05-12T12:16:39.099Z,22.04
2023-05-12T12:19:07.479Z,22.65
2023-05-12T12:21:35.608Z,22.64
2023-05-12T12:24:06.212Z,22.55
2023-05-12T12:26:34.168Z,22.30
2023-05-12T12:29:02.105Z,22.32
2023-05-12T12:31:30.040Z,22.54
2023-05-12T12:33:57.983Z,22.46
2023-05-12T12:36:26.011Z,22.90
2023-05-12T12:38:53.965Z,23.04
2023-05-12T12:41:23.382Z,23.41
2023-05-12T12:43:51.309Z,23.49
2023-05-12T12:46:19.306Z,23.04
2023-05-12T12:48:47.328Z,23.12
2023-05-12T12:51:15.279Z,23.47
2023-05-12T12:53:45.682Z,23.79
2023-05-12T12:56:13.625Z,23.52
2023-05-12T12:58:42.944Z,23.42
2023-05-12T13:01:10.889Z,22.94
2023-05-12T13:03:38.893Z,22.75
2023-05-12T13:06:07.067Z,23.27
2023-05-12T13:08:35.126Z,23.53
2023-05-12T13:11:03.144Z,24.21
2023-05-12T13:13:31.091Z,25.21
2023-05-12T13:16:00.397Z,25.54
2023-05-12T13:18:28.342Z,25.59
2023-05-12T13:20:56.313Z,25.03
2023-05-12T13:23:24.208Z,24.07
2023-05-12T13:25:52.138Z,23.92
2023-05-12T13:28:20.065Z,23.23
2023-05-12T13:30:48.064Z,23.11
2023-05-12T13:33:17.466Z,22.77
2023-05-12T13:35:45.422Z,23.19
2023-05-12T13:38:13.535Z,22.55
2023-05-12T13:40:41.590Z,22.01
2023-05-12T13:43:09.808Z,22.04
2023-05-12T13:45:37.751Z,22.04
2023-05-12T13:48:06.155Z,22.22
2023-05-12T13:50:35.875Z,22.37
2023-05-12T13:53:03.783Z,22.35
2023-05-12T13:55:33.949Z,22.08
2023-05-12T13:58:01.931Z,21.09
2023-05-12T14:00:29.978Z,20.97
2023-05-12T14:02:58.064Z,20.89
2023-05-12T14:05:27.350Z,20.57
2023-05-12T14:07:56.846Z,20.33
2023-05-12T14:10:24.779Z,20.26
2023-05-12T14:12:52.921Z,20.08
2023-05-12T14:15:29.629Z,19.96
2023-05-12T14:18:00.810Z,19.73
2023-05-12T14:20:28.733Z,19.63
2023-05-12T14:22:58.009Z,19.53
2023-05-12T14:25:26.067Z,19.56
2023-05-12T14:27:54.029Z,19.55
2023-05-12T14:30:22.066Z,19.54
2023-05-12T14:32:50.013Z,19.63
2023-05-12T14:35:18.573Z,19.53
2023-05-12T14:37:46.561Z,19.39
2023-05-12T14:40:16.447Z,19.33
2023-05-12T14:42:44.392Z,19.28
2023-05-12T14:45:13.021Z,19.19
2023-05-12T14:47:41.016Z,18.94
2023-05-12T14:50:09.444Z,18.88
2023-05-12T14:52:38.592Z,18.94
2023-05-12T14:55:11.459Z,18.94
2023-05-12T14:57:40.820Z,18.94
2023-05-12T15:00:10.888Z,18.98
2023-05-12T15:02:39.008Z,18.99
2023-05-12T15:05:08.470Z,19.13
2023-05-12T15:07:36.402Z,19.19
2023-05-12T15:10:04.600Z,19.25
2023-05-12T15:12:32.639Z,19.10
2023-05-12T15:15:04.267Z,19.03
2023-05-12T15:17:32.508Z,19.01
2023-05-12T15:20:00.529Z,18.89
2023-05-12T15:22:31.336Z,18.82
2023-05-12T15:24:59.248Z,18.82
2023-05-12T15:27:27.353Z,18.77
2023-05-12T15:29:55.327Z,18.78
2023-05-12T15:32:24.715Z,18.83
2023-05-12T15:34:52.871Z,18.78
2023-05-12T15:37:20.838Z,18.57
2023-05-12T15:39:48.742Z,18.63
2023-05-12T15:42:22.253Z,18.51
2023-05-12T15:44:54.074Z,18.47
2023-05-12T15:47:22.048Z,18.23
2023-05-12T15:49:51.402Z,18.15
2023-05-12T15:52:19.341Z,18.10
2023-05-12T15:54:47.331Z,18.15
2023-05-12T15:57:15.278Z,18.11
2023-05-12T15:59:43.190Z,18.02
2023-05-12T16:02:11.505Z,17.98
2023-05-12T16:04:39.440Z,17.93
2023-05-12T16:07:08.769Z,17.69
2023-05-12T16:09:36.664Z,17.59
2023-05-12T16:12:05.915Z,17.46
2023-05-12T16:14:35.451Z,17.43
2023-05-12T16:17:06.148Z,17.38
2023-05-12T16:19:34.075Z,17.36
2023-05-12T16:22:01.981Z,17.32
2023-05-12T16:24:31.283Z,17.29
2023-05-12T16:27:00.358Z,17.19
2023-05-12T16:29:29.191Z,16.97
2023-05-12T16:31:57.193Z,16.96
2023-05-12T16:34:26.093Z,16.83
2023-05-12T16:36:53.992Z,16.66
2023-05-12T16:39:21.880Z,16.60
2023-05-12T16:41:51.200Z,16.50
2023-05-12T16:44:19.211Z,16.43
2023-05-12T16:46:47.294Z,16.38
2023-05-12T16:49:15.311Z,16.24
2023-05-12T16:51:43.416Z,16.16
2023-05-12T16:54:11.325Z,16.11
2023-05-12T16:56:39.257Z,16.05
2023-05-12T16:59:08.524Z,15.95
2023-05-12T17:01:36.511Z,15.85
2023-05-12T17:04:04.665Z,15.71
2023-05-12T17:06:32.727Z,15.57
2023-05-12T17:09:01.599Z,15.51
2023-05-12T17:11:29.568Z,15.38
2023-05-12T17:13:57.455Z,15.29
2023-05-12T17:16:26.833Z,15.16
2023-05-12T17:21:25.572Z,14.93
2023-05-12T17:23:53.899Z,14.75
2023-05-12T17:26:22.477Z,14.64
2023-05-12T17:28:50.469Z,14.54
2023-05-12T17:31:18.399Z,14.44
2023-05-12T17:33:47.702Z,14.24
2023-05-12T17:36:15.656Z,14.13
2023-05-12T17:38:43.908Z,14.05
2023-05-12T17:41:11.966Z,13.95
2023-05-12T17:43:39.885Z,13.82
2023-05-12T17:46:08.521Z,13.77
2023-05-12T17:48:36.419Z,13.61
2023-05-12T17:51:05.804Z,13.55
2023-05-12T17:53:34.634Z,13.43
2023-05-12T17:56:02.573Z,13.35
2023-05-12T17:58:30.701Z,13.28
2023-05-12T18:00:58.643Z,13.22
2023-05-12T18:03:26.666Z,13.11
2023-05-12T18:05:55.219Z,13.09
2023-05-12T18:08:24.547Z,13.13
2023-05-12T18:10:52.498Z,13.06
2023-05-12T18:13:20.966Z,13.02
2023-05-12T18:15:49.691Z,12.99
2023-05-12T18:18:17.685Z,12.95
2023-05-12T18:20:45.916Z,12.93
2023-05-12T18:23:13.866Z,12.94
2023-05-12T18:25:43.255Z,12.87
2023-05-12T18:28:11.195Z,12.87
2023-05-12T18:30:39.273Z,12.92
2023-05-12T18:33:07.275Z,12.92
2023-05-12T18:35:35.268Z,12.99
2023-05-12T18:38:03.168Z,13.07
2023-05-12T18:40:31.620Z,13.12
2023-05-12T18:43:00.944Z,13.21
2023-05-12T18:45:28.893Z,13.22
2023-05-12T18:47:56.848Z,13.25
2023-05-12T18:50:24.775Z,13.32
2023-05-12T18:52:52.725Z,13.35
2023-05-12T18:55:20.900Z,13.38
2023-05-12T18:57:48.940Z,13.53
2023-05-12T19:00:20.051Z,13.53
2023-05-12T19:02:48.036Z,13.58
2023-05-12T19:05:16.175Z,13.59
2023-05-12T19:07:44.169Z,13.62
2023-05-12T19:10:12.408Z,13.53
2023-05-12T19:12:40.357Z,13.59
2023-05-12T19:15:09.405Z,13.57
2023-05-12T19:17:38.856Z,13.61
2023-05-12T19:20:08.315Z,13.67
2023-05-12T19:22:36.508Z,13.64
2023-05-12T19:25:06.052Z,13.59
2023-05-12T19:27:34.015Z,13.66
2023-05-12T19:30:05.030Z,13.62
2023-05-12T19:32:33.147Z,13.68
2023-05-12T19:35:02.654Z,13.58
2023-05-12T19:37:30.621Z,13.57
2023-05-12T19:39:59.310Z,13.53
2023-05-12T19:42:27.747Z,13.53
2023-05-12T19:44:55.724Z,13.54
2023-05-12T19:47:25.250Z,13.53
2023-05-12T19:49:54.551Z,13.30
2023-05-12T19:52:24.748Z,13.36
2023-05-12T19:54:52.768Z,13.49
2023-05-12T19:57:20.987Z,13.36
2023-05-12T19:59:49.647Z,13.31
2023-05-12T20:02:17.915Z,13.37
2023-05-12T20:04:45.941Z,13.39
2023-05-12T20:07:13.872Z,13.36
2023-05-12T20:09:43.302Z,13.35
2023-05-12T20:12:11.369Z,13.28
2023-05-12T20:14:39.457Z,13.24
2023-05-12T20:17:07.785Z,13.16
2023-05-12T20:19:35.822Z,13.14
2023-05-12T20:22:03.756Z,13.18
2023-05-12T20:24:31.688Z,13.20
2023-05-12T20:27:01.022Z,13.16
2023-05-12T20:29:30.271Z,13.11
2023-05-12T20:31:58.200Z,13.08
2023-05-12T20:34:26.101Z,13.00
2023-05-12T20:36:54.060Z,13.00
2023-05-12T20:39:22.025Z,12.93
2023-05-12T20:41:50.137Z,12.92
2023-05-12T20:44:20.081Z,12.79
2023-05-12T20:46:48.104Z,12.82
2023-05-12T20:49:16.073Z,12.83
2023-05-12T20:51:43.986Z,12.73
2023-05-12T20:54:11.944Z,12.62
2023-05-12T20:56:39.912Z,12.51
2023-05-12T20:59:07.978Z,12.50
2023-05-12T21:01:37.255Z,12.48
2023-05-12T21:04:05.398Z,12.45
2023-05-12T21:06:33.876Z,12.37
2023-05-12T21:09:01.848Z,12.31
2023-05-12T21:11:29.778Z,12.26
2023-05-12T21:13:58.198Z,12.16
2023-05-12T21:16:26.488Z,12.16
2023-05-12T21:18:56.154Z,12.05
2023-05-12T21:21:24.094Z,11.96
2023-05-12T21:23:51.990Z,11.97
2023-05-12T21:26:19.897Z,11.90
2023-05-12T21:28:47.808Z,11.75
2023-05-12T21:31:15.736Z,11.74
2023-05-12T21:33:43.640Z,11.75
2023-05-12T21:36:12.944Z,11.75
2023-05-12T21:38:40.885Z,11.70
2023-05-12T21:41:08.867Z,11.65
2023-05-12T21:43:36.807Z,11.55
2023-05-12T21:46:05.003Z,11.50
2023-05-12T21:48:33.390Z,11.45
2023-05-12T21:51:01.636Z,11.36
2023-05-12T21:53:31.069Z,11.17
2023-05-12T21:55:59.042Z,10.75
2023-05-12T21:58:28.276Z,10.96
2023-05-12T22:00:56.405Z,10.94
2023-05-12T22:03:25.432Z,10.89
2023-05-12T22:05:53.401Z,10.89
2023-05-12T22:08:21.319Z,10.94
2023-05-12T22:10:50.626Z,10.80
2023-05-12T22:13:19.147Z,10.71
2023-05-12T22:15:47.203Z,10.75
2023-05-12T22:18:15.143Z,10.62
2023-05-12T22:20:43.024Z,10.75
2023-05-12T22:23:10.946Z,10.84
2023-05-12T22:25:39.072Z,10.85
2023-05-12T22:28:08.378Z,10.84
2023-05-12T22:30:36.297Z,10.77
2023-05-12T22:33:04.208Z,10.66
2023-05-12T22:35:32.246Z,10.55
2023-05-12T22:38:00.430Z,10.57
2023-05-12T22:40:28.381Z,10.50
2023-05-12T22:42:56.294Z,10.28
2023-05-12T22:45:25.977Z,10.22
2023-05-12T22:47:54.006Z,10.16
2023-05-12T22:50:22.409Z,10.08
2023-05-12T22:52:50.439Z,10.01
2023-05-12T22:55:18.371Z,9.91
2023-05-12T22:57:46.467Z,9.88
2023-05-12T23:00:15.405Z,9.82
2023-05-12T23:02:44.703Z,9.76
2023-05-12T23:05:12.654Z,9.74
2023-05-12T23:07:40.633Z,9.67
2023-05-12T23:10:09.675Z,9.63
2023-05-12T23:12:37.654Z,9.59
2023-05-12T23:15:05.957Z,9.46
2023-05-12T23:17:33.882Z,9.30
2023-05-12T23:20:03.184Z,9.23
2023-05-12T23:22:31.193Z,9.22
2023-05-12T23:24:59.366Z,9.17
2023-05-12T23:27:27.314Z,9.09
2023-05-12T23:29:55.257Z,8.83
2023-05-12T23:32:23.498Z,8.62
2023-05-12T23:34:51.694Z,8.67
2023-05-12T23:37:20.988Z,8.57
2023-05-12T23:39:49.055Z,8.65
2023-05-12T23:42:17.285Z,8.57
2023-05-12T23:44:45.197Z,8.52
2023-05-12T23:47:13.109Z,8.59
2023-05-12T23:49:41.056Z,8.53
2023-05-12T23:52:08.984Z,8.39
2023-05-12T23:54:38.241Z,8.34
2023-05-12T23:57:06.496Z,8.26
2023-05-12T23:59:34.465Z,8.21
